createdAt,value
2022-09-12T00:03:55.394Z,87.94
2022-09-12T00:07:57.187Z,88.05
2022-09-12T00:11:58.865Z,87.98
2022-09-12T00:16:01.102Z,87.86
2022-09-12T00:20:04.491Z,87.50
2022-09-12T00:24:06.778Z,87.36
2022-09-12T00:28:08.545Z,87.09
2022-09-12T00:32:10.219Z,87.51
2022-09-12T00:36:18.490Z,87.33
2022-09-12T00:40:20.193Z,87.23
2022-09-12T00:44:21.742Z,87.18
2022-09-12T00:48:32.121Z,87.50
2022-09-12T00:52:43.749Z,87.06
2022-09-12T00:56:47.807Z,87.13
2022-09-12T01:00:50.183Z,86.92
2022-09-12T01:04:52.319Z,86.81
2022-09-12T01:08:55.116Z,86.69
2022-09-12T01:12:57.479Z,86.68
2022-09-12T01:16:59.557Z,86.71
2022-09-12T01:21:26.072Z,86.56
2022-09-12T01:25:44.614Z,86.12
2022-09-12T01:30:23.738Z,86.49
2022-09-12T01:34:34.414Z,85.85
2022-09-12T01:38:47.157Z,86.08
2022-09-12T01:43:04.374Z,86.21
2022-09-12T01:47:15.778Z,85.98
2022-09-12T01:51:26.410Z,85.98
2022-09-12T01:55:32.679Z,86.20
2022-09-12T01:59:39.644Z,86.19
2022-09-12T02:03:51.208Z,86.05
2022-09-12T02:08:01.241Z,85.78
2022-09-12T02:12:04.921Z,85.88
2022-09-12T02:16:11.286Z,86.39
2022-09-12T02:20:48.275Z,85.77
2022-09-12T02:24:55.666Z,85.81
2022-09-12T02:28:57.667Z,85.84
2022-09-12T02:33:06.318Z,85.96
2022-09-12T02:37:19.023Z,85.70
2022-09-12T02:41:21.781Z,86.19
2022-09-12T02:45:23.855Z,85.99
2022-09-12T02:49:25.606Z,86.22
2022-09-12T02:53:27.636Z,86.47
2022-09-12T02:57:29.290Z,86.67
2022-09-12T03:01:50.182Z,86.29
2022-09-12T03:06:01.104Z,86.43
2022-09-12T03:10:23.186Z,85.87
2022-09-12T03:14:51.178Z,86.12
2022-09-12T03:19:03.856Z,86.11
2022-09-12T03:23:20.230Z,85.90
2022-09-12T03:27:34.936Z,86.02
2022-09-12T03:31:36.632Z,85.83
2022-09-12T03:35:38.528Z,85.45
2022-09-12T03:39:40.391Z,85.79
2022-09-12T03:43:42.212Z,85.80
2022-09-12T03:47:43.869Z,85.82
2022-09-12T03:51:45.620Z,86.38
2022-09-12T03:55:47.284Z,86.57
2022-09-12T03:59:50.349Z,86.10
2022-09-12T04:03:52.915Z,86.11
2022-09-12T04:07:54.563Z,86.38
2022-09-12T04:11:56.245Z,86.43
2022-09-12T04:15:59.722Z,86.32
2022-09-12T04:20:01.567Z,86.81
2022-09-12T04:24:03.552Z,86.43
2022-09-12T04:28:05.177Z,86.38
2022-09-12T04:32:06.829Z,86.40
2022-09-12T04:36:16.806Z,86.77
2022-09-12T04:40:19.108Z,86.99
2022-09-12T04:44:20.783Z,87.14
2022-09-12T04:48:22.541Z,86.82
2022-09-12T04:52:24.334Z,86.82
2022-09-12T04:56:26.952Z,87.22
2022-09-12T05:00:29.110Z,87.45
2022-09-12T05:04:31.660Z,87.58
2022-09-12T05:08:35.067Z,87.35
2022-09-12T05:12:37.047Z,87.13
2022-09-12T05:16:39.017Z,87.19
2022-09-12T05:20:40.802Z,87.49
2022-09-12T05:24:47.284Z,87.37
2022-09-12T05:28:53.051Z,87.94
2022-09-12T05:32:54.713Z,87.75
2022-09-12T05:36:56.389Z,88.02
2022-09-12T05:41:06.313Z,87.62
2022-09-12T05:45:08.759Z,87.67
2022-09-12T05:49:12.823Z,87.48
2022-09-12T05:53:14.479Z,87.47
2022-09-12T05:57:16.141Z,87.72
2022-09-12T06:01:19.341Z,87.85
2022-09-12T06:05:21.158Z,87.87
2022-09-12T06:09:25.458Z,87.47
2022-09-12T06:13:27.285Z,87.45
2022-09-12T06:17:29.046Z,87.17
2022-09-12T06:21:31.417Z,87.16
2022-09-12T06:25:33.085Z,86.87
2022-09-12T06:29:34.759Z,86.38
2022-09-12T06:33:38.612Z,86.33
2022-09-12T06:37:40.788Z,85.87
2022-09-12T06:41:44.271Z,85.89
2022-09-12T06:45:50.383Z,85.69
2022-09-12T06:49:52.107Z,85.53
2022-09-12T06:53:57.635Z,85.22
2022-09-12T06:57:59.915Z,85.02
2022-09-12T07:02:01.722Z,84.73
2022-09-12T07:06:08.642Z,84.45
2022-09-12T07:10:12.035Z,84.50
2022-09-12T07:14:15.150Z,84.78
2022-09-12T07:18:16.853Z,84.62
2022-09-12T07:22:19.220Z,84.47
2022-09-12T07:26:21.431Z,84.17
2022-09-12T07:30:23.307Z,84.51
2022-09-12T07:34:25.055Z,83.69
2022-09-12T07:38:26.747Z,83.86
2022-09-12T07:42:28.786Z,83.19
2022-09-12T07:46:31.447Z,83.07
2022-09-12T07:50:33.628Z,82.16
2022-09-12T07:54:35.389Z,82.09
2022-09-12T07:58:39.269Z,82.12
2022-09-12T08:02:41.285Z,81.58
2022-09-12T08:06:43.222Z,81.70
2022-09-12T08:10:44.869Z,81.59
2022-09-12T08:14:46.777Z,81.45
2022-09-12T08:18:49.431Z,81.22
2022-09-12T08:22:51.434Z,80.69
2022-09-12T08:26:53.110Z,80.23
2022-09-12T08:30:54.947Z,79.89
2022-09-12T08:34:56.664Z,79.98
2022-09-12T08:39:00.767Z,80.09
2022-09-12T08:43:25.955Z,80.08
2022-09-12T08:47:34.610Z,79.57
2022-09-12T08:51:36.959Z,79.94
2022-09-12T08:55:51.378Z,79.31
2022-09-12T08:59:53.665Z,79.14
2022-09-12T09:04:26.907Z,78.63
2022-09-12T09:08:59.410Z,78.46
2022-09-12T09:13:14.198Z,77.95
2022-09-12T09:17:41.142Z,77.41
2022-09-12T09:21:42.749Z,77.14
2022-09-12T09:25:56.495Z,77.17
2022-09-12T09:29:58.186Z,76.92
2022-09-12T09:34:00.613Z,76.53
2022-09-12T09:38:24.655Z,76.51
2022-09-12T09:42:32.137Z,76.05
2022-09-12T09:46:34.085Z,75.75
2022-09-12T09:50:37.478Z,75.42
2022-09-12T09:54:44.389Z,75.37
2022-09-12T09:58:46.366Z,75.33
2022-09-12T10:03:11.341Z,74.27
2022-09-12T10:07:20.211Z,74.24
2022-09-12T10:11:23.300Z,73.97
2022-09-12T10:15:26.688Z,73.09
2022-09-12T10:19:40.455Z,72.66
2022-09-12T10:23:43.416Z,72.64
2022-09-12T10:27:45.354Z,72.45
2022-09-12T10:31:59.734Z,71.99
2022-09-12T10:36:02.503Z,71.27
2022-09-12T10:40:20.863Z,70.84
2022-09-12T10:44:28.467Z,70.62
2022-09-12T10:48:33.654Z,69.85
2022-09-12T10:52:35.464Z,69.27
2022-09-12T10:57:02.081Z,68.02
2022-09-12T11:01:19.285Z,68.13
2022-09-12T11:05:45.362Z,67.76
2022-09-12T11:10:11.960Z,67.65
2022-09-12T11:15:07.062Z,67.36
2022-09-12T11:19:50.991Z,66.74
2022-09-12T11:24:23.784Z,66.27
2022-09-12T11:28:53.663Z,66.54
2022-09-12T11:33:40.877Z,66.06
2022-09-12T11:37:52.555Z,66.04
2022-09-12T11:42:02.105Z,65.39
2022-09-12T11:46:11.682Z,64.49
2022-09-12T11:50:27.135Z,63.77
2022-09-12T11:54:44.924Z,63.49
2022-09-12T11:58:53.221Z,63.62
2022-09-12T12:03:06.903Z,63.75
2022-09-12T12:07:11.410Z,62.92
2022-09-12T12:11:16.506Z,62.91
2022-09-12T12:15:19.268Z,62.54
2022-09-12T12:19:32.914Z,62.28
2022-09-12T12:23:35.501Z,61.93
2022-09-12T12:27:53.835Z,61.68
2022-09-12T12:32:02.170Z,61.68
2022-09-12T12:36:08.138Z,61.34
2022-09-12T12:40:22.907Z,60.66
2022-09-12T12:44:44.808Z,60.05
2022-09-12T12:48:55.873Z,60.42
2022-09-12T12:53:17.111Z,59.89
2022-09-12T12:57:29.938Z,59.62
2022-09-12T13:01:32.595Z,59.25
2022-09-12T13:05:44.976Z,59.00
2022-09-12T13:09:55.439Z,58.79
2022-09-12T13:14:03.329Z,58.22
2022-09-12T13:18:12.607Z,58.26
2022-09-12T13:22:14.651Z,58.16
2022-09-12T13:26:25.726Z,57.33
2022-09-12T13:30:31.495Z,57.24
2022-09-12T13:34:58.278Z,56.82
2022-09-12T13:39:27.720Z,57.15
2022-09-12T13:43:42.820Z,55.57
2022-09-12T13:47:47.674Z,55.69
2022-09-12T13:52:03.377Z,55.37
2022-09-12T13:56:05.172Z,55.54
2022-09-12T14:00:20.052Z,55.94
2022-09-12T14:04:43.396Z,56.37
2022-09-12T14:08:47.825Z,56.38
2022-09-12T14:12:52.910Z,56.08
2022-09-12T14:16:54.938Z,56.24
2022-09-12T14:21:01.047Z,56.05
2022-09-12T14:25:03.285Z,56.38
2022-09-12T14:29:06.644Z,56.33
2022-09-12T14:33:11.319Z,56.17
2022-09-12T14:37:13.098Z,55.85
2022-09-12T14:41:23.320Z,55.80
2022-09-12T14:45:31.553Z,55.47
2022-09-12T14:49:36.844Z,55.76
2022-09-12T14:53:49.127Z,54.77
2022-09-12T14:58:12.569Z,54.23
2022-09-12T15:02:17.189Z,55.04
2022-09-12T15:06:26.679Z,55.21
2022-09-12T15:10:35.863Z,54.60
2022-09-12T15:14:37.512Z,55.01
2022-09-12T15:18:39.388Z,54.68
2022-09-12T15:22:42.226Z,54.38
2022-09-12T15:26:43.906Z,54.24
2022-09-12T15:30:47.512Z,54.22
2022-09-12T15:34:49.216Z,53.96
2022-09-12T15:38:51.909Z,54.05
2022-09-12T15:42:53.553Z,54.38
2022-09-12T15:46:55.258Z,54.60
2022-09-12T15:51:01.446Z,54.98
2022-09-12T15:55:04.434Z,54.95
2022-09-12T15:59:06.230Z,54.90
2022-09-12T16:03:23.692Z,54.45
2022-09-12T16:07:25.331Z,54.87
2022-09-12T16:11:27.599Z,54.49
2022-09-12T16:15:29.263Z,54.67
2022-09-12T16:19:30.992Z,55.02
2022-09-12T16:23:33.048Z,55.17
2022-09-12T16:27:35.698Z,55.39
2022-09-12T16:31:38.512Z,55.79
2022-09-12T16:35:40.257Z,55.80
2022-09-12T16:39:42.085Z,56.20
2022-09-12T16:43:44.524Z,56.65
2022-09-12T16:47:46.217Z,57.00
2022-09-12T16:51:47.916Z,57.49
2022-09-12T16:55:50.319Z,58.01
2022-09-12T16:59:52.219Z,57.74
2022-09-12T17:03:56.589Z,58.31
2022-09-12T17:07:58.263Z,58.73
2022-09-12T17:12:00.709Z,58.91
2022-09-12T17:16:12.381Z,59.28
2022-09-12T17:20:14.099Z,59.68
2022-09-12T17:24:17.670Z,59.55
2022-09-12T17:28:20.173Z,60.13
2022-09-12T17:32:21.906Z,60.55
2022-09-12T17:36:23.562Z,61.08
2022-09-12T17:40:42.523Z,61.24
2022-09-12T17:44:46.882Z,61.60
2022-09-12T17:48:56.843Z,62.43
2022-09-12T17:52:58.530Z,62.54
2022-09-12T17:57:00.198Z,62.50
2022-09-12T18:01:22.445Z,62.85
2022-09-12T18:05:24.139Z,63.33
2022-09-12T18:09:26.837Z,64.11
2022-09-12T18:13:28.514Z,63.99
2022-09-12T18:17:30.194Z,64.67
2022-09-12T18:21:32.079Z,65.13
2022-09-12T18:25:33.755Z,65.71
2022-09-12T18:29:35.493Z,65.31
2022-09-12T18:33:37.984Z,65.75
2022-09-12T18:37:42.489Z,66.51
2022-09-12T18:41:44.459Z,66.59
2022-09-12T18:45:46.113Z,67.01
2022-09-12T18:49:48.624Z,67.38
2022-09-12T18:53:53.636Z,67.47
2022-09-12T18:57:55.701Z,67.50
2022-09-12T19:01:57.939Z,67.98
2022-09-12T19:05:59.736Z,68.43
2022-09-12T19:10:01.459Z,68.44
2022-09-12T19:14:03.359Z,68.46
2022-09-12T19:18:05.100Z,69.13
2022-09-12T19:22:06.787Z,69.36
2022-09-12T19:26:10.937Z,69.85
2022-09-12T19:30:12.750Z,70.15
2022-09-12T19:34:15.078Z,70.33
2022-09-12T19:38:17.063Z,70.57
2022-09-12T19:42:18.796Z,70.21
2022-09-12T19:46:22.677Z,70.68
2022-09-12T19:50:24.802Z,70.96
2022-09-12T19:54:26.423Z,71.28
2022-09-12T19:58:29.242Z,71.44
2022-09-12T20:02:31.122Z,71.57
2022-09-12T20:06:32.931Z,72.03
2022-09-12T20:10:34.647Z,71.92
2022-09-12T20:14:36.381Z,72.06
2022-09-12T20:18:41.622Z,72.28
2022-09-12T20:22:43.356Z,72.27
2022-09-12T20:26:45.188Z,72.74
2022-09-12T20:30:47.035Z,73.00
2022-09-12T20:34:48.718Z,72.94
2022-09-12T20:38:53.401Z,72.94
2022-09-12T20:42:55.092Z,73.47
2022-09-12T20:46:57.126Z,73.43
2022-09-12T20:50:59.823Z,73.92
2022-09-12T20:55:01.548Z,74.04
2022-09-12T20:59:04.232Z,74.59
2022-09-12T21:03:05.876Z,74.28
2022-09-12T21:07:07.581Z,74.38
2022-09-12T21:11:10.001Z,74.67
2022-09-12T21:15:11.700Z,74.49
2022-09-12T21:19:13.381Z,74.61
2022-09-12T21:23:15.064Z,74.82
2022-09-12T21:27:16.867Z,75.06
2022-09-12T21:31:18.674Z,75.02
2022-09-12T21:35:20.391Z,74.81
2022-09-12T21:39:22.367Z,74.75
2022-09-12T21:43:24.065Z,75.10
2022-09-12T21:47:25.715Z,74.72
2022-09-12T21:51:27.411Z,75.09
2022-09-12T21:55:29.307Z,74.86
2022-09-12T21:59:31.142Z,74.80
2022-09-12T22:03:32.990Z,74.98
2022-09-12T22:07:34.704Z,74.92
2022-09-12T22:11:36.391Z,74.92
2022-09-12T22:15:40.941Z,75.03
2022-09-12T22:19:43.033Z,75.06
2022-09-12T22:24:04.449Z,74.95
2022-09-12T22:28:06.227Z,74.90
2022-09-12T22:32:08.010Z,75.06
2022-09-12T22:36:10.205Z,75.06
2022-09-12T22:40:12.066Z,75.42
2022-09-12T22:44:14.167Z,75.54
2022-09-12T22:48:17.225Z,75.75
2022-09-12T22:52:18.950Z,76.06
2022-09-12T22:56:20.622Z,76.13
2022-09-12T23:00:23.660Z,76.24
2022-09-12T23:04:25.462Z,76.36
2022-09-12T23:08:29.706Z,76.64
2022-09-12T23:12:32.060Z,76.90
2022-09-12T23:16:33.880Z,77.19
2022-09-12T23:20:35.741Z,77.02
2022-09-12T23:24:38.373Z,77.16
2022-09-12T23:28:41.594Z,77.41
2022-09-12T23:32:43.292Z,77.25
2022-09-12T23:36:44.990Z,77.77
2022-09-12T23:40:46.691Z,77.83
2022-09-12T23:44:48.389Z,77.99
2022-09-12T23:48:50.423Z,78.20
2022-09-12T23:52:52.153Z,78.07
2022-09-12T23:56:53.828Z,77.75
